Aeroporto :
LOGIN :

Iscrizione | Disclaimer

   EN    FR    IT 

 










Sommario :    VFR   VFR Marginale   IFR   IFR Intensivo   IFR Molto Intensivo
Visibilità : 
Base nubi : 
>= 8 km
>= 3000ft
5 / 8 km
1000 / 3000 ft
1500m / 5 km
500 / 1000 ft
800 / 1500m
200 / 500 ft
< 800m
< 200 ft
Simboli :   Temporali  Nebbia  Neve Forte  Precipitazioni Forti  Vento > 20 kt
SIGMETs :   Varie  Temporali  Ghiacco  Turbolenza  Onda orograficha  Ceneri Vulcaniche






- Altitudine del aeroporto : 74 ft
- Codice IATA : NDZ


ETMN - Cuxhaven Nordholz Sea AB

ULTIMO METAR :
  • 212220Z 20004KT 9999 BKN037 11/08 Q1019 BLU

METARs OBSOLETI :
  • 212120Z 22007KT 9999 SCT036 11/08 Q1019 BLU+
  • 212020Z 23007KT 9999 FEW040 11/09 Q1019 BLU+

TAF AMD TAF ETMN
Valido dal 21 a 17 ore il 22 a 02 ore UTC


211821Z 2117/2202 20007KT 9999 NSW SCT020 BKN250
TEMPO 2117/2202 19005KT 3500 BR SCT020 CANCEL 1850



MetMap, La meteo Aeronautica in un colpo d'occhio ! - Copyright ORBIFLY Dicembre 2007 - Disclaimer

ORBIFLY MET'MAP TEAM :

Programmazione e sviluppo : Alexandra Zaïnal
Concezione e sviluppo : Baudouin d'Aumeries
Co-Programmazione e sviluppo : Marc-Olivier Méhu
Supporto tecnico e logistico : Manuel Goepfert
Aiuto per la traduzione : Arnaldo La Scala

Contatto : metmap@orbifly.com




FONTI E CREDITI :

   NOAA